Francesville, Indiana
Current Conditions -  °F | °C
As of 10:35 AM on Thursday 29 Jan 2015 (Local Time) from KRZL Reporting Station
Overcast Overcast  
Wind Chill: 28°   Ceiling: 1800
Heat Index: 36°   Visibility: 7mi
Dew Point: 34°   Wind: 10mph
Humidity: 93%   Direction: 300°WNW
Pressure: 29.86"   Gusts: 17mph
Location:  40.99°N, 86.88°W
Report Text: KRZL 291635Z AUTO 30009G15KT 7SM OVC018 02/01 A2986 RMK AO2
Loading
Personal Weather Stations






























Interactive Weather Map New forecast layout! Learn more

10-Day Weather Forecast

Advertisements
Track Severe Weather on mobile